createdAt,value
2023-03-18T00:01:11.871Z,101832.72
2023-03-18T00:03:41.173Z,101830.25
2023-03-18T00:06:12.316Z,101832.72
2023-03-18T00:08:41.251Z,101833.69
2023-03-18T00:11:11.299Z,101829.88
2023-03-18T00:13:39.681Z,101828.66
2023-03-18T00:16:12.077Z,101826.78
2023-03-18T00:18:41.868Z,101821.91
2023-03-18T00:21:09.829Z,101825.25
2023-03-18T00:23:42.701Z,101824.13
2023-03-18T00:26:10.468Z,101821.75
2023-03-18T00:28:38.263Z,101820.72
2023-03-18T00:31:09.188Z,101826.00
2023-03-18T00:33:40.186Z,101829.94
2023-03-18T00:36:10.403Z,101830.00
2023-03-18T00:38:37.898Z,101834.81
2023-03-18T00:41:12.633Z,101831.66
2023-03-18T00:43:52.757Z,101831.91
2023-03-18T00:46:28.039Z,101826.97
2023-03-18T00:49:00.062Z,101833.88
2023-03-18T00:51:29.932Z,101830.72
2023-03-18T00:54:02.012Z,101821.56
2023-03-18T00:56:32.221Z,101823.13
2023-03-18T00:59:00.363Z,101823.50
2023-03-18T01:01:28.712Z,101820.06
2023-03-18T01:03:57.965Z,101823.03
2023-03-18T01:06:29.018Z,101820.00
2023-03-18T01:08:58.642Z,101816.47
2023-03-18T01:11:26.508Z,101819.53
2023-03-18T01:13:55.196Z,101821.19
2023-03-18T01:16:23.200Z,101820.84
2023-03-18T01:18:51.290Z,101821.06
2023-03-18T01:21:18.804Z,101821.94
2023-03-18T01:23:47.125Z,101818.72
2023-03-18T01:26:15.062Z,101824.31
2023-03-18T01:28:43.103Z,101829.63
2023-03-18T01:31:12.782Z,101821.91
2023-03-18T01:33:40.553Z,101830.69
2023-03-18T01:36:08.476Z,101828.44
2023-03-18T01:38:38.579Z,101832.59
2023-03-18T01:41:08.833Z,101836.09
2023-03-18T01:43:40.840Z,101832.94
2023-03-18T01:46:30.834Z,101831.78
2023-03-18T01:48:59.202Z,101830.91
2023-03-18T01:51:27.477Z,101837.19
2023-03-18T01:53:59.544Z,101847.50
2023-03-18T01:56:27.922Z,101844.81
2023-03-18T01:58:59.676Z,101851.88
2023-03-18T02:01:32.578Z,101847.00
2023-03-18T02:04:03.039Z,101847.56
2023-03-18T02:06:32.084Z,101838.06
2023-03-18T02:09:00.640Z,101846.09
2023-03-18T02:11:32.926Z,101843.91
2023-03-18T02:14:04.188Z,101843.88
2023-03-18T02:16:40.167Z,101842.25
2023-03-18T02:19:39.895Z,101839.56
2023-03-18T02:22:27.512Z,101850.47
2023-03-18T02:25:25.945Z,101845.97
2023-03-18T02:27:59.393Z,101857.66
2023-03-18T02:30:35.395Z,101856.78
2023-03-18T02:33:05.222Z,101863.00
2023-03-18T02:35:37.245Z,101858.28
2023-03-18T02:38:05.150Z,101863.94
2023-03-18T02:40:35.867Z,101859.38
2023-03-18T02:43:32.112Z,101868.13
2023-03-18T02:46:17.673Z,101863.84
2023-03-18T02:48:49.851Z,101861.44
2023-03-18T02:51:18.990Z,101861.88
2023-03-18T02:53:49.785Z,101865.06
2023-03-18T02:56:18.077Z,101866.50
2023-03-18T02:58:46.783Z,101867.00
2023-03-18T03:01:14.771Z,101873.19
2023-03-18T03:03:42.388Z,101875.97
2023-03-18T03:06:11.728Z,101874.03
2023-03-18T03:08:40.359Z,101869.44
2023-03-18T03:11:08.664Z,101871.53
2023-03-18T03:13:36.779Z,101876.31
2023-03-18T03:16:04.569Z,101865.69
2023-03-18T03:18:32.170Z,101865.94
2023-03-18T03:20:59.834Z,101866.78
2023-03-18T03:23:28.031Z,101861.44
2023-03-18T03:25:57.302Z,101867.50
2023-03-18T03:28:25.726Z,101873.69
2023-03-18T03:30:54.383Z,101864.38
2023-03-18T03:33:23.574Z,101868.72
2023-03-18T03:35:52.137Z,101870.91
2023-03-18T03:38:23.192Z,101868.00
2023-03-18T03:40:51.465Z,101872.13
2023-03-18T03:43:19.030Z,101876.94
2023-03-18T03:45:49.072Z,101875.34
2023-03-18T03:48:17.713Z,101875.38
2023-03-18T03:50:52.682Z,101871.91
2023-03-18T03:53:24.649Z,101876.72
2023-03-18T03:55:52.890Z,101878.38
2023-03-18T03:58:21.054Z,101879.28
2023-03-18T04:00:48.727Z,101874.31
2023-03-18T04:03:17.296Z,101876.25
2023-03-18T04:05:44.712Z,101887.69
2023-03-18T04:08:12.210Z,101883.78
2023-03-18T04:10:40.475Z,101878.09
2023-03-18T04:13:08.991Z,101879.41
2023-03-18T04:15:38.754Z,101882.72
2023-03-18T04:18:08.286Z,101881.88
2023-03-18T04:20:38.012Z,101891.06
2023-03-18T04:23:06.302Z,101889.38
2023-03-18T04:25:35.419Z,101892.28
2023-03-18T04:28:03.647Z,101892.28
2023-03-18T04:30:32.562Z,101889.13
2023-03-18T04:33:01.620Z,101898.97
2023-03-18T04:35:32.934Z,101893.97
2023-03-18T04:38:00.582Z,101900.06
2023-03-18T04:40:28.871Z,101899.78
2023-03-18T04:42:57.768Z,101895.56
2023-03-18T04:45:25.696Z,101893.25
2023-03-18T04:47:55.774Z,101903.09
2023-03-18T04:50:24.249Z,101902.47
2023-03-18T04:52:51.773Z,101909.03
2023-03-18T04:55:21.310Z,101906.84
2023-03-18T04:57:50.667Z,101897.22
2023-03-18T05:00:22.328Z,101900.75
2023-03-18T05:02:50.461Z,101908.06
2023-03-18T05:05:18.475Z,101905.75
2023-03-18T05:07:47.370Z,101899.44
2023-03-18T05:10:15.039Z,101911.22
2023-03-18T05:12:43.583Z,101919.72
2023-03-18T05:15:13.276Z,101920.44
2023-03-18T05:17:41.409Z,101913.91
2023-03-18T05:20:10.632Z,101923.81
2023-03-18T05:22:38.130Z,101919.25
2023-03-18T05:25:07.267Z,101923.13
2023-03-18T05:27:36.791Z,101919.34
2023-03-18T05:30:09.416Z,101925.41
2023-03-18T05:32:40.636Z,101934.16
2023-03-18T05:35:09.499Z,101938.41
2023-03-18T05:37:37.576Z,101934.75
2023-03-18T05:40:10.170Z,101933.31
2023-03-18T05:42:55.504Z,101932.56
2023-03-18T05:45:24.646Z,101936.47
2023-03-18T05:47:53.040Z,101935.72
2023-03-18T05:50:33.264Z,101942.16
2023-03-18T05:53:02.220Z,101936.69
2023-03-18T05:55:30.704Z,101949.06
2023-03-18T05:58:00.473Z,101938.16
2023-03-18T06:00:30.153Z,101945.69
2023-03-18T06:02:59.658Z,101950.91
2023-03-18T06:05:28.735Z,101950.53
2023-03-18T06:07:56.244Z,101957.34
2023-03-18T06:10:25.337Z,101943.56
2023-03-18T06:12:55.452Z,101956.94
2023-03-18T06:15:23.695Z,101950.91
2023-03-18T06:17:52.805Z,101961.09
2023-03-18T06:20:21.575Z,101965.56
2023-03-18T06:22:49.932Z,101968.38
2023-03-18T06:25:20.539Z,101974.31
2023-03-18T06:27:48.159Z,101960.94
2023-03-18T06:30:25.280Z,101973.59
2023-03-18T06:32:57.638Z,101966.06
2023-03-18T06:35:27.659Z,101979.19
2023-03-18T06:37:55.758Z,101973.34
2023-03-18T06:40:24.798Z,101976.41
2023-03-18T06:42:52.396Z,101982.31
2023-03-18T06:45:22.466Z,101983.31
2023-03-18T06:47:51.452Z,101980.63
2023-03-18T06:50:18.961Z,101980.03
2023-03-18T06:52:46.315Z,101977.13
2023-03-18T06:55:15.208Z,101982.09
2023-03-18T06:57:42.841Z,101981.38
2023-03-18T07:00:10.973Z,101973.81
2023-03-18T07:02:39.877Z,101984.03
2023-03-18T07:05:08.183Z,101977.69
2023-03-18T07:07:38.770Z,101985.59
2023-03-18T07:10:08.670Z,101987.44
2023-03-18T07:12:40.427Z,101992.06
2023-03-18T07:15:08.495Z,101992.16
2023-03-18T07:17:37.428Z,101988.88
2023-03-18T07:20:05.567Z,102002.47
2023-03-18T07:22:34.654Z,101995.94
2023-03-18T07:25:02.641Z,102005.53
2023-03-18T07:27:30.151Z,102001.28
2023-03-18T07:29:57.940Z,101997.38
2023-03-18T07:32:25.603Z,101994.59
2023-03-18T07:34:53.229Z,101996.44
2023-03-18T07:37:20.749Z,101996.66
2023-03-18T07:39:48.810Z,102001.03
2023-03-18T07:42:16.281Z,102001.28
2023-03-18T07:44:43.719Z,102005.41
2023-03-18T07:47:12.093Z,102001.03
2023-03-18T07:49:39.548Z,102001.16
2023-03-18T07:52:07.604Z,102011.59
2023-03-18T07:54:35.664Z,102014.75
2023-03-18T07:57:04.640Z,102017.16
2023-03-18T07:59:33.315Z,102012.19
2023-03-18T08:02:01.589Z,102011.22
2023-03-18T08:04:32.650Z,102009.00
2023-03-18T08:07:00.542Z,102016.19
2023-03-18T08:09:28.047Z,102018.75
2023-03-18T08:12:00.312Z,102012.69
2023-03-18T08:14:27.883Z,102011.59
2023-03-18T08:16:55.316Z,102004.91
2023-03-18T08:19:23.800Z,102003.69
2023-03-18T08:21:51.492Z,102016.56
2023-03-18T08:24:20.460Z,102020.69
2023-03-18T08:26:48.360Z,102015.94
2023-03-18T08:29:15.884Z,102011.53
2023-03-18T08:31:43.370Z,102022.00
2023-03-18T08:34:12.238Z,102017.16
2023-03-18T08:36:41.166Z,102024.22
2023-03-18T08:39:10.079Z,102017.53
2023-03-18T08:41:37.640Z,102019.44
2023-03-18T08:44:12.627Z,102020.75
2023-03-18T08:46:40.434Z,102020.91
2023-03-18T08:49:07.937Z,102020.91
2023-03-18T08:51:35.551Z,102033.09
2023-03-18T08:54:03.026Z,102036.22
2023-03-18T08:56:30.667Z,102031.63
2023-03-18T08:58:58.644Z,102023.75
2023-03-18T09:01:26.129Z,102028.22
2023-03-18T09:03:56.321Z,102027.25
2023-03-18T09:06:23.959Z,102038.50
2023-03-18T09:08:51.275Z,102040.56
2023-03-18T09:11:20.949Z,102035.94
2023-03-18T09:13:48.802Z,102045.38
2023-03-18T09:16:18.488Z,102035.88
2023-03-18T09:18:48.356Z,102040.91
2023-03-18T09:21:16.509Z,102041.47
2023-03-18T09:23:44.514Z,102035.44
2023-03-18T09:26:12.181Z,102036.66
2023-03-18T09:28:42.348Z,102045.50
2023-03-18T09:31:09.774Z,102044.63
2023-03-18T09:33:37.251Z,102047.59
2023-03-18T09:36:05.405Z,102048.75
2023-03-18T09:38:33.913Z,102049.03
2023-03-18T09:41:14.530Z,102049.03
2023-03-18T09:44:01.143Z,102052.69
2023-03-18T09:46:45.536Z,102054.13
2023-03-18T09:49:39.092Z,102053.28
2023-03-18T09:52:45.382Z,102061.00
2023-03-18T09:55:52.515Z,102055.06
2023-03-18T09:58:29.506Z,102049.72
2023-03-18T10:01:07.363Z,102052.34
2023-03-18T10:03:39.809Z,102049.31
2023-03-18T10:06:25.165Z,102046.22
2023-03-18T10:09:14.517Z,102048.19
2023-03-18T10:11:48.068Z,102043.69
2023-03-18T10:14:51.607Z,102038.28
2023-03-18T10:17:26.092Z,102040.91
2023-03-18T10:20:04.552Z,102028.28
2023-03-18T10:22:55.013Z,102034.09
2023-03-18T10:25:36.633Z,102040.47
2023-03-18T10:28:33.743Z,102030.00
2023-03-18T10:31:25.964Z,102026.72
2023-03-18T10:34:01.482Z,102030.97
2023-03-18T10:36:37.773Z,102033.41
2023-03-18T10:39:16.010Z,102027.09
2023-03-18T10:41:50.038Z,102021.97
2023-03-18T10:44:34.182Z,102023.06
2023-03-18T10:47:04.160Z,102025.00
2023-03-18T10:49:37.317Z,102019.31
2023-03-18T10:52:19.211Z,102022.19
2023-03-18T10:54:52.781Z,102014.28
2023-03-18T10:57:22.258Z,102023.25
2023-03-18T10:59:52.320Z,102023.88
2023-03-18T11:02:29.522Z,102029.25
2023-03-18T11:05:06.995Z,102020.88
2023-03-18T11:07:35.066Z,102016.25
2023-03-18T11:10:24.024Z,102019.31
2023-03-18T11:12:58.930Z,102016.59
2023-03-18T11:15:26.572Z,102018.94
2023-03-18T11:17:59.535Z,102012.53
2023-03-18T11:20:44.307Z,102019.41
2023-03-18T11:23:18.236Z,102010.03
2023-03-18T11:25:49.647Z,102014.91
2023-03-18T11:28:28.227Z,102015.66
2023-03-18T11:30:57.789Z,102012.09
2023-03-18T11:33:30.124Z,102004.28
2023-03-18T11:35:59.271Z,102008.13
2023-03-18T11:38:28.874Z,102003.41
2023-03-18T11:41:14.547Z,101996.69
2023-03-18T11:44:00.190Z,102007.50
2023-03-18T11:46:33.978Z,102011.84
2023-03-18T11:49:01.375Z,102007.78
2023-03-18T11:51:50.058Z,102002.09
2023-03-18T11:54:20.330Z,102005.81
2023-03-18T11:56:55.079Z,102001.25
2023-03-18T11:59:31.688Z,102004.81
2023-03-18T12:02:08.172Z,101997.84
2023-03-18T12:05:01.483Z,102002.53
2023-03-18T12:07:47.681Z,102007.50
2023-03-18T12:10:34.525Z,101992.41
2023-03-18T12:13:29.870Z,101993.97
2023-03-18T12:16:22.180Z,102005.28
2023-03-18T12:18:59.283Z,102005.03
2023-03-18T12:21:45.206Z,101998.56
2023-03-18T12:24:46.245Z,101992.41
2023-03-18T12:27:37.999Z,101992.16
2023-03-18T12:30:38.851Z,101978.53
2023-03-18T12:33:34.175Z,101983.97
2023-03-18T12:36:26.503Z,101991.63
2023-03-18T12:39:00.329Z,101988.16
2023-03-18T12:41:37.368Z,101986.91
2023-03-18T12:44:21.940Z,101988.41
2023-03-18T12:47:06.762Z,101983.59
2023-03-18T12:49:44.985Z,101968.66
2023-03-18T12:52:27.520Z,101973.47
2023-03-18T12:55:06.997Z,101969.84
2023-03-18T12:57:54.586Z,101976.94
2023-03-18T13:00:34.928Z,101970.19
2023-03-18T13:03:38.144Z,101974.97
2023-03-18T13:06:26.683Z,101969.22
2023-03-18T13:09:05.597Z,101967.50
2023-03-18T13:12:02.009Z,101965.69
2023-03-18T13:14:53.583Z,101976.34
2023-03-18T13:17:36.295Z,101969.63
2023-03-18T13:20:13.419Z,101964.00
2023-03-18T13:22:43.564Z,101959.09
2023-03-18T13:25:26.080Z,101963.13
2023-03-18T13:28:14.140Z,101965.34
2023-03-18T13:30:54.127Z,101965.94
2023-03-18T13:33:27.581Z,101960.06
2023-03-18T13:36:17.227Z,101958.03
2023-03-18T13:39:10.177Z,101956.22
2023-03-18T13:42:20.306Z,101962.16
2023-03-18T13:44:58.486Z,101961.59
2023-03-18T13:47:31.540Z,101961.06
2023-03-18T13:50:04.983Z,101961.63
2023-03-18T13:52:42.183Z,101964.06
2023-03-18T13:55:32.028Z,101966.00
2023-03-18T13:58:06.377Z,101962.63
2023-03-18T14:00:40.543Z,101959.22
2023-03-18T14:03:24.046Z,101966.06
2023-03-18T14:06:30.331Z,101959.69
2023-03-18T14:08:57.902Z,101968.56
2023-03-18T14:11:28.719Z,101964.00
2023-03-18T14:14:01.881Z,101967.16
2023-03-18T14:16:51.547Z,101962.63
2023-03-18T14:19:32.696Z,101966.75
2023-03-18T14:22:13.897Z,101970.56
2023-03-18T14:25:02.063Z,101969.28
2023-03-18T14:27:29.963Z,101973.25
2023-03-18T14:30:31.821Z,101970.66
2023-03-18T14:33:03.326Z,101967.25
2023-03-18T14:35:55.689Z,101964.91
2023-03-18T14:38:38.503Z,101979.81
2023-03-18T14:41:22.542Z,101977.13
2023-03-18T14:44:06.645Z,101980.97
2023-03-18T14:46:39.339Z,101983.75
2023-03-18T14:49:28.347Z,101992.22
2023-03-18T14:51:56.216Z,101995.88
2023-03-18T14:54:27.420Z,101987.91
2023-03-18T14:56:56.772Z,102002.81
2023-03-18T14:59:27.971Z,102001.19
2023-03-18T15:01:56.556Z,102006.38
2023-03-18T15:04:27.443Z,102001.88
2023-03-18T15:07:00.592Z,102007.78
2023-03-18T15:09:31.476Z,102013.22
2023-03-18T15:11:58.870Z,102018.09
2023-03-18T15:14:31.803Z,102020.97
2023-03-18T15:17:01.407Z,102021.69
2023-03-18T15:19:29.318Z,102024.19
2023-03-18T15:22:05.917Z,102038.53
2023-03-18T15:24:34.028Z,102027.66
2023-03-18T15:27:07.708Z,102035.28
2023-03-18T15:29:45.961Z,102032.91
2023-03-18T15:32:13.575Z,102038.09
2023-03-18T15:34:44.789Z,102044.91
2023-03-18T15:37:33.799Z,102044.19
2023-03-18T15:40:24.787Z,102048.81
2023-03-18T15:43:10.572Z,102051.22
2023-03-18T15:45:47.224Z,102048.38
2023-03-18T15:48:29.827Z,102067.88
2023-03-18T15:51:05.154Z,102068.88
2023-03-18T15:53:43.066Z,102052.69
2023-03-18T15:56:18.469Z,102064.81
2023-03-18T15:58:46.279Z,102063.50
2023-03-18T16:01:18.264Z,102059.84
2023-03-18T16:03:47.566Z,102075.63
2023-03-18T16:06:16.728Z,102068.78
2023-03-18T16:08:45.184Z,102066.44
2023-03-18T16:11:17.364Z,102066.25
2023-03-18T16:13:46.304Z,102067.00
2023-03-18T16:16:27.237Z,102073.72
2023-03-18T16:18:59.415Z,102071.41
2023-03-18T16:21:27.257Z,102075.28
2023-03-18T16:23:55.191Z,102079.13
2023-03-18T16:26:22.743Z,102083.09
2023-03-18T16:28:50.134Z,102075.03
2023-03-18T16:31:17.739Z,102081.81
2023-03-18T16:33:46.422Z,102080.16
2023-03-18T16:36:32.353Z,102085.88
2023-03-18T16:38:59.794Z,102082.34
2023-03-18T16:41:31.798Z,102084.81
2023-03-18T16:43:59.987Z,102087.47
2023-03-18T16:46:27.921Z,102084.56
2023-03-18T16:48:56.255Z,102090.63
2023-03-18T16:51:25.352Z,102087.72
2023-03-18T16:53:58.488Z,102091.59
2023-03-18T16:56:26.689Z,102096.38
2023-03-18T16:58:58.074Z,102095.75
2023-03-18T17:01:28.127Z,102094.19
2023-03-18T17:03:55.591Z,102101.47
2023-03-18T17:06:24.835Z,102094.28
2023-03-18T17:08:53.566Z,102099.06
2023-03-18T17:11:21.484Z,102093.81
2023-03-18T17:13:49.298Z,102099.66
2023-03-18T17:16:20.241Z,102090.66
2023-03-18T17:18:48.295Z,102098.41
2023-03-18T17:21:17.207Z,102096.25
2023-03-18T17:23:45.719Z,102106.31
2023-03-18T17:26:16.875Z,102102.06
2023-03-18T17:28:47.763Z,102109.69
2023-03-18T17:31:16.651Z,102100.25
2023-03-18T17:33:50.578Z,102107.53
2023-03-18T17:36:18.366Z,102102.81
2023-03-18T17:38:45.973Z,102107.28
2023-03-18T17:41:21.393Z,102098.41
2023-03-18T17:43:52.896Z,102103.25
2023-03-18T17:46:20.374Z,102105.69
2023-03-18T17:48:48.604Z,102111.16
2023-03-18T17:51:24.763Z,102106.91
2023-03-18T17:54:05.113Z,102099.16
2023-03-18T17:56:32.743Z,102108.13
2023-03-18T17:59:00.244Z,102103.75
2023-03-18T18:01:30.254Z,102108.88
2023-03-18T18:03:59.918Z,102108.63
2023-03-18T18:06:29.449Z,102104.00
2023-03-18T18:09:00.669Z,102103.88
2023-03-18T18:11:38.019Z,102101.59
2023-03-18T18:14:23.634Z,102102.69
2023-03-18T18:16:52.396Z,102092.13
2023-03-18T18:19:24.436Z,102103.41
2023-03-18T18:21:53.293Z,102101.09
2023-03-18T18:24:40.581Z,102102.06
2023-03-18T18:27:11.548Z,102101.09
2023-03-18T18:29:39.207Z,102106.94
2023-03-18T18:32:06.757Z,102105.13
2023-03-18T18:34:34.199Z,102094.03
2023-03-18T18:37:02.240Z,102113.72
2023-03-18T18:39:29.888Z,102110.53
2023-03-18T18:42:10.172Z,102108.72
2023-03-18T18:44:38.570Z,102113.94
2023-03-18T18:47:17.691Z,102114.69
2023-03-18T18:49:47.339Z,102111.03
2023-03-18T18:52:14.675Z,102110.19
2023-03-18T18:54:43.415Z,102109.44
2023-03-18T18:57:29.161Z,102114.22
2023-03-18T18:59:57.559Z,102108.59
2023-03-18T19:02:35.119Z,102115.41
2023-03-18T19:05:05.078Z,102116.38
2023-03-18T19:07:33.802Z,102114.41
2023-03-18T19:10:01.799Z,102107.00
2023-03-18T19:12:30.474Z,102108.81
2023-03-18T19:14:58.017Z,102110.06
2023-03-18T19:17:25.803Z,102115.53
2023-03-18T19:19:53.613Z,102111.88
2023-03-18T19:22:21.816Z,102114.88
2023-03-18T19:24:50.365Z,102115.88
2023-03-18T19:27:26.736Z,102108.81
2023-03-18T19:29:58.458Z,102102.94
2023-03-18T19:32:27.153Z,102107.31
2023-03-18T19:34:55.168Z,102109.25
2023-03-18T19:37:29.510Z,102101.38
2023-03-18T19:39:58.509Z,102103.91
2023-03-18T19:42:26.667Z,102107.81
2023-03-18T19:44:54.535Z,102095.22
2023-03-18T19:47:26.549Z,102102.47
2023-03-18T19:49:54.285Z,102094.69
2023-03-18T19:52:27.249Z,102099.09
2023-03-18T19:54:55.500Z,102089.34
2023-03-18T19:57:32.723Z,102098.09
2023-03-18T20:00:05.908Z,102084.13
2023-03-18T20:02:36.385Z,102088.22
2023-03-18T20:05:16.776Z,102091.50
2023-03-18T20:07:44.498Z,102087.00
2023-03-18T20:10:13.424Z,102096.34
2023-03-18T20:12:49.150Z,102085.41
2023-03-18T20:15:22.456Z,102083.72
2023-03-18T20:17:51.786Z,102077.31
2023-03-18T20:20:26.169Z,102082.03
2023-03-18T20:22:59.529Z,102075.69
2023-03-18T20:25:34.196Z,102073.31
2023-03-18T20:28:04.780Z,102076.41
2023-03-18T20:30:35.911Z,102072.53
2023-03-18T20:33:07.523Z,102072.28
2023-03-18T20:35:41.562Z,102071.84
2023-03-18T20:38:31.706Z,102076.66
2023-03-18T20:41:00.616Z,102072.91
2023-03-18T20:43:29.350Z,102070.38
2023-03-18T20:45:59.368Z,102060.16
2023-03-18T20:48:28.300Z,102066.97
2023-03-18T20:50:56.269Z,102061.50
2023-03-18T20:53:31.864Z,102061.16
2023-03-18T20:55:59.256Z,102059.47
2023-03-18T20:58:28.256Z,102064.56
2023-03-18T21:00:56.170Z,102062.88
2023-03-18T21:03:27.168Z,102059.16
2023-03-18T21:05:58.955Z,102058.91
2023-03-18T21:08:28.274Z,102052.84
2023-03-18T21:11:03.946Z,102050.91
2023-03-18T21:13:39.271Z,102056.69
2023-03-18T21:16:13.081Z,102049.66
2023-03-18T21:18:45.835Z,102056.56
2023-03-18T21:21:18.282Z,102046.22
2023-03-18T21:23:45.812Z,102043.13
2023-03-18T21:26:13.286Z,102041.97
2023-03-18T21:28:40.990Z,102040.22
2023-03-18T21:31:31.473Z,102027.31
2023-03-18T21:34:00.252Z,102029.53
2023-03-18T21:36:28.003Z,102021.25
2023-03-18T21:38:55.585Z,102022.22
2023-03-18T21:41:28.100Z,102013.97
2023-03-18T21:43:55.952Z,102020.94
2023-03-18T21:46:27.191Z,102021.53
2023-03-18T21:48:55.842Z,102022.03
2023-03-18T21:51:39.855Z,102014.63
2023-03-18T21:54:18.763Z,102009.59
2023-03-18T21:56:48.060Z,102016.41
2023-03-18T21:59:15.636Z,102016.13
2023-03-18T22:01:46.608Z,102013.25
2023-03-18T22:04:14.257Z,102009.91
2023-03-18T22:06:41.667Z,102011.09
2023-03-18T22:09:09.984Z,102010.88
2023-03-18T22:11:38.199Z,102009.09
2023-03-18T22:14:05.893Z,102009.06
2023-03-18T22:16:33.272Z,102013.53
2023-03-18T22:19:00.884Z,102009.25
2023-03-18T22:21:31.620Z,102011.13
2023-03-18T22:24:00.409Z,102003.53
2023-03-18T22:26:28.339Z,102007.56
2023-03-18T22:28:55.728Z,101997.63
2023-03-18T22:31:25.788Z,102004.50
2023-03-18T22:33:54.126Z,102011.78
2023-03-18T22:36:22.432Z,102003.19
2023-03-18T22:38:50.097Z,102003.09
2023-03-18T22:41:29.330Z,102000.44
2023-03-18T22:44:00.409Z,102001.25
2023-03-18T22:46:28.594Z,101997.22
2023-03-18T22:48:56.133Z,102000.31
2023-03-18T22:51:28.326Z,101994.81
2023-03-18T22:53:55.892Z,101997.94
2023-03-18T22:56:24.247Z,101996.63
2023-03-18T22:58:51.925Z,101997.47
2023-03-18T23:01:26.603Z,101996.06
2023-03-18T23:03:54.369Z,101986.09
2023-03-18T23:06:28.788Z,101999.44
2023-03-18T23:08:56.972Z,101990.13
2023-03-18T23:11:24.435Z,101983.31
2023-03-18T23:13:52.297Z,101988.25
2023-03-18T23:16:22.331Z,101981.88
2023-03-18T23:18:50.640Z,101979.94
2023-03-18T23:21:23.258Z,101985.47
2023-03-18T23:23:52.665Z,101976.72
2023-03-18T23:26:22.423Z,101984.03
2023-03-18T23:28:50.326Z,101975.56
2023-03-18T23:31:18.245Z,101970.59
2023-03-18T23:33:47.319Z,101976.38
2023-03-18T23:36:15.890Z,101973.59
2023-03-18T23:38:44.704Z,101974.59
2023-03-18T23:41:12.520Z,101971.69
2023-03-18T23:43:40.100Z,101976.78
2023-03-18T23:46:08.369Z,101972.25
2023-03-18T23:48:35.923Z,101971.47
2023-03-18T23:51:03.329Z,101968.41
2023-03-18T23:53:32.286Z,101968.72
2023-03-18T23:56:01.275Z,101963.78
2023-03-18T23:58:29.084Z,101961.56
